Terminal Aerodrome Forecast
Issued by NWS

Home | Current Version | Previous Version | Text Only | Print | Product List | Glossary On
Versions: 1 2 3 4 5 6 7 8 9 10 11
193
FTUS44 KJAN 240520
TAFHKS
TAF
KHKS 240520Z 2406/2506 32004KT P6SM BKN050
     FM240900 31003KT P6SM SKC
     FM241500 31011KT P6SM SKC=

USA.gov is the U.S. government's official web portal to all federal, state and local government web resources and services.